sensor_id;sensor_type;location;lat;lon;timestamp;pressure;altitude;pressure_sealevel;temperature;humidity
16016;BME280;8112;53.592;10.184;2023-03-18T00:03:34;100408.50;;;9.65;100.00
16016;BME280;8112;53.592;10.184;2023-03-18T00:08:37;100406.53;;;9.69;100.00
16016;BME280;8112;53.592;10.184;2023-03-18T00:13:42;100397.88;;;9.67;100.00
16016;BME280;8112;53.592;10.184;2023-03-18T00:18:43;100398.81;;;9.66;100.00
16016;BME280;8112;53.592;10.184;2023-03-18T00:23:45;100404.38;;;9.61;100.00
16016;BME280;8112;53.592;10.184;2023-03-18T00:28:49;100406.81;;;9.64;100.00
16016;BME280;8112;53.592;10.184;2023-03-18T00:33:52;100406.44;;;9.70;100.00
16016;BME280;8112;53.592;10.184;2023-03-18T00:38:54;100406.16;;;9.75;100.00
16016;BME280;8112;53.592;10.184;2023-03-18T00:43:59;100402.00;;;9.86;100.00
16016;BME280;8112;53.592;10.184;2023-03-18T00:49:04;100394.88;;;9.88;100.00
16016;BME280;8112;53.592;10.184;2023-03-18T00:54:07;100403.72;;;9.87;100.00
16016;BME280;8112;53.592;10.184;2023-03-18T00:59:11;100406.91;;;9.92;100.00
16016;BME280;8112;53.592;10.184;2023-03-18T01:04:14;100412.19;;;9.92;100.00
16016;BME280;8112;53.592;10.184;2023-03-18T01:09:16;100417.66;;;9.89;100.00
16016;BME280;8112;53.592;10.184;2023-03-18T01:14:20;100420.84;;;9.94;100.00
16016;BME280;8112;53.592;10.184;2023-03-18T01:19:22;100427.78;;;9.95;100.00
16016;BME280;8112;53.592;10.184;2023-03-18T01:24:25;100419.88;;;9.95;100.00
16016;BME280;8112;53.592;10.184;2023-03-18T01:29:30;100419.16;;;9.93;100.00
16016;BME280;8112;53.592;10.184;2023-03-18T01:34:33;100412.66;;;9.84;100.00
16016;BME280;8112;53.592;10.184;2023-03-18T01:39:34;100411.25;;;9.78;100.00
16016;BME280;8112;53.592;10.184;2023-03-18T01:44:42;100404.94;;;9.81;100.00
16016;BME280;8112;53.592;10.184;2023-03-18T01:49:47;100408.34;;;9.83;100.00
16016;BME280;8112;53.592;10.184;2023-03-18T01:54:53;100410.84;;;9.84;100.00
16016;BME280;8112;53.592;10.184;2023-03-18T01:59:58;100412.94;;;9.79;100.00
16016;BME280;8112;53.592;10.184;2023-03-18T02:05:03;100422.72;;;9.77;100.00
16016;BME280;8112;53.592;10.184;2023-03-18T02:10:09;100426.94;;;9.80;100.00
16016;BME280;8112;53.592;10.184;2023-03-18T02:15:16;100429.00;;;9.75;100.00
16016;BME280;8112;53.592;10.184;2023-03-18T02:20:31;100424.19;;;9.81;100.00
16016;BME280;8112;53.592;10.184;2023-03-18T02:25:43;100427.41;;;9.72;100.00
16016;BME280;8112;53.592;10.184;2023-03-18T02:30:51;100445.63;;;9.75;100.00
16016;BME280;8112;53.592;10.184;2023-03-18T02:36:04;100447.22;;;9.78;100.00
16016;BME280;8112;53.592;10.184;2023-03-18T02:41:15;100452.19;;;9.68;100.00
16016;BME280;8112;53.592;10.184;2023-03-18T02:46:26;100447.78;;;9.68;100.00
16016;BME280;8112;53.592;10.184;2023-03-18T02:51:30;100450.50;;;9.67;100.00
16016;BME280;8112;53.592;10.184;2023-03-18T02:56:32;100450.88;;;9.61;100.00
16016;BME280;8112;53.592;10.184;2023-03-18T03:01:37;100436.09;;;9.58;100.00
16016;BME280;8112;53.592;10.184;2023-03-18T03:06:41;100440.72;;;9.54;100.00
16016;BME280;8112;53.592;10.184;2023-03-18T03:11:45;100440.72;;;9.54;100.00
16016;BME280;8112;53.592;10.184;2023-03-18T03:16:53;100442.50;;;9.54;100.00
16016;BME280;8112;53.592;10.184;2023-03-18T03:21:57;100442.59;;;9.52;100.00
16016;BME280;8112;53.592;10.184;2023-03-18T03:27:00;100448.69;;;9.53;100.00
16016;BME280;8112;53.592;10.184;2023-03-18T03:32:04;100439.75;;;9.41;100.00
16016;BME280;8112;53.592;10.184;2023-03-18T03:37:06;100443.84;;;9.31;100.00
16016;BME280;8112;53.592;10.184;2023-03-18T03:42:08;100448.78;;;9.21;100.00
16016;BME280;8112;53.592;10.184;2023-03-18T03:47:12;100441.94;;;9.18;100.00
16016;BME280;8112;53.592;10.184;2023-03-18T03:52:14;100457.81;;;9.17;100.00
16016;BME280;8112;53.592;10.184;2023-03-18T03:57:19;100451.22;;;9.09;100.00
16016;BME280;8112;53.592;10.184;2023-03-18T04:02:24;100447.22;;;9.02;100.00
16016;BME280;8112;53.592;10.184;2023-03-18T04:07:28;100437.06;;;8.96;100.00
16016;BME280;8112;53.592;10.184;2023-03-18T04:12:30;100449.19;;;8.98;100.00
16016;BME280;8112;53.592;10.184;2023-03-18T04:17:35;100444.09;;;8.95;100.00
16016;BME280;8112;53.592;10.184;2023-03-18T04:22:38;100460.28;;;9.04;100.00
16016;BME280;8112;53.592;10.184;2023-03-18T04:27:42;100464.78;;;9.02;100.00
16016;BME280;8112;53.592;10.184;2023-03-18T04:32:48;100473.78;;;8.97;100.00
16016;BME280;8112;53.592;10.184;2023-03-18T04:37:51;100467.16;;;8.90;100.00
16016;BME280;8112;53.592;10.184;2023-03-18T04:42:55;100471.66;;;8.88;100.00
16016;BME280;8112;53.592;10.184;2023-03-18T04:48:01;100478.72;;;8.88;100.00
16016;BME280;8112;53.592;10.184;2023-03-18T04:53:07;100475.22;;;8.87;100.00
16016;BME280;8112;53.592;10.184;2023-03-18T04:58:10;100478.63;;;8.89;100.00
16016;BME280;8112;53.592;10.184;2023-03-18T05:03:20;100482.09;;;8.90;100.00
16016;BME280;8112;53.592;10.184;2023-03-18T05:08:23;100489.88;;;8.91;100.00
16016;BME280;8112;53.592;10.184;2023-03-18T05:13:25;100508.28;;;8.91;100.00
16016;BME280;8112;53.592;10.184;2023-03-18T05:18:29;100505.84;;;8.88;100.00
16016;BME280;8112;53.592;10.184;2023-03-18T05:23:35;100497.19;;;8.86;100.00
16016;BME280;8112;53.592;10.184;2023-03-18T05:28:37;100495.66;;;8.82;100.00
16016;BME280;8112;53.592;10.184;2023-03-18T05:33:49;100493.28;;;8.77;100.00
16016;BME280;8112;53.592;10.184;2023-03-18T05:38:52;100494.28;;;8.75;100.00
16016;BME280;8112;53.592;10.184;2023-03-18T05:43:55;100511.63;;;8.79;100.00
16016;BME280;8112;53.592;10.184;2023-03-18T05:48:59;100515.00;;;8.81;100.00
16016;BME280;8112;53.592;10.184;2023-03-18T05:54:12;100518.03;;;8.89;100.00
16016;BME280;8112;53.592;10.184;2023-03-18T05:59:16;100535.00;;;9.00;100.00
16016;BME280;8112;53.592;10.184;2023-03-18T06:04:27;100536.41;;;9.05;100.00
16016;BME280;8112;53.592;10.184;2023-03-18T06:09:29;100548.03;;;9.17;100.00
16016;BME280;8112;53.592;10.184;2023-03-18T06:14:32;100553.47;;;9.30;100.00
16016;BME280;8112;53.592;10.184;2023-03-18T06:19:37;100566.16;;;9.38;100.00
16016;BME280;8112;53.592;10.184;2023-03-18T06:24:39;100561.41;;;9.45;100.00
16016;BME280;8112;53.592;10.184;2023-03-18T06:29:41;100563.59;;;9.52;100.00
16016;BME280;8112;53.592;10.184;2023-03-18T06:34:48;100567.16;;;9.51;100.00
16016;BME280;8112;53.592;10.184;2023-03-18T06:39:50;100577.53;;;9.54;100.00
16016;BME280;8112;53.592;10.184;2023-03-18T06:44:52;100578.84;;;9.62;100.00
16016;BME280;8112;53.592;10.184;2023-03-18T06:50:02;100573.31;;;9.66;100.00
16016;BME280;8112;53.592;10.184;2023-03-18T06:55:08;100580.81;;;9.89;100.00
16016;BME280;8112;53.592;10.184;2023-03-18T07:00:15;100585.16;;;10.04;100.00
16016;BME280;8112;53.592;10.184;2023-03-18T07:05:18;100592.75;;;10.25;100.00
16016;BME280;8112;53.592;10.184;2023-03-18T07:10:25;100596.31;;;10.38;100.00
16016;BME280;8112;53.592;10.184;2023-03-18T07:15:35;100610.88;;;10.30;100.00
16016;BME280;8112;53.592;10.184;2023-03-18T07:20:40;100618.50;;;10.34;100.00
16016;BME280;8112;53.592;10.184;2023-03-18T07:25:42;100616.13;;;10.46;100.00
16016;BME280;8112;53.592;10.184;2023-03-18T07:30:45;100618.75;;;10.60;100.00
16016;BME280;8112;53.592;10.184;2023-03-18T07:35:48;100624.97;;;10.74;100.00
16016;BME280;8112;53.592;10.184;2023-03-18T07:40:50;100618.06;;;11.00;100.00
16016;BME280;8112;53.592;10.184;2023-03-18T07:45:52;100636.97;;;11.21;100.00
16016;BME280;8112;53.592;10.184;2023-03-18T07:50:56;100640.72;;;11.32;100.00
16016;BME280;8112;53.592;10.184;2023-03-18T07:55:58;100640.59;;;11.48;100.00
16016;BME280;8112;53.592;10.184;2023-03-18T08:01:01;100629.66;;;11.67;100.00
16016;BME280;8112;53.592;10.184;2023-03-18T08:06:05;100625.47;;;11.64;100.00
16016;BME280;8112;53.592;10.184;2023-03-18T08:11:07;100638.25;;;11.71;100.00
16016;BME280;8112;53.592;10.184;2023-03-18T08:16:09;100640.81;;;11.72;100.00
16016;BME280;8112;53.592;10.184;2023-03-18T08:21:13;100649.81;;;11.95;100.00
16016;BME280;8112;53.592;10.184;2023-03-18T08:26:14;100645.19;;;11.99;100.00
16016;BME280;8112;53.592;10.184;2023-03-18T08:31:16;100652.38;;;11.97;100.00
16016;BME280;8112;53.592;10.184;2023-03-18T08:36:19;100660.47;;;12.08;100.00
16016;BME280;8112;53.592;10.184;2023-03-18T08:41:21;100663.84;;;12.10;100.00
16016;BME280;8112;53.592;10.184;2023-03-18T08:46:25;100662.19;;;12.22;100.00
16016;BME280;8112;53.592;10.184;2023-03-18T08:51:28;100672.84;;;12.34;100.00
16016;BME280;8112;53.592;10.184;2023-03-18T08:56:29;100683.19;;;12.24;100.00
16016;BME280;8112;53.592;10.184;2023-03-18T09:01:31;100689.09;;;12.15;100.00
16016;BME280;8112;53.592;10.184;2023-03-18T09:06:34;100690.13;;;11.84;100.00
16016;BME280;8112;53.592;10.184;2023-03-18T09:11:36;100699.16;;;11.67;100.00
16016;BME280;8112;53.592;10.184;2023-03-18T09:16:38;100702.84;;;11.65;100.00
16016;BME280;8112;53.592;10.184;2023-03-18T09:21:41;100696.28;;;11.58;100.00
16016;BME280;8112;53.592;10.184;2023-03-18T09:26:43;100703.28;;;11.99;100.00
16016;BME280;8112;53.592;10.184;2023-03-18T09:31:45;100714.78;;;12.13;100.00
16016;BME280;8112;53.592;10.184;2023-03-18T09:36:48;100713.16;;;11.82;100.00
16016;BME280;8112;53.592;10.184;2023-03-18T09:42:02;100714.72;;;11.72;100.00
16016;BME280;8112;53.592;10.184;2023-03-18T09:47:27;100723.13;;;11.64;100.00
16016;BME280;8112;53.592;10.184;2023-03-18T09:52:41;100717.94;;;11.48;100.00
16016;BME280;8112;53.592;10.184;2023-03-18T09:57:47;100726.78;;;11.62;100.00
16016;BME280;8112;53.592;10.184;2023-03-18T10:02:52;100728.28;;;12.08;100.00
16016;BME280;8112;53.592;10.184;2023-03-18T10:08:00;100737.81;;;12.51;100.00
16016;BME280;8112;53.592;10.184;2023-03-18T10:13:08;100735.06;;;12.91;100.00
16016;BME280;8112;53.592;10.184;2023-03-18T10:18:17;100731.66;;;13.41;100.00
16016;BME280;8112;53.592;10.184;2023-03-18T10:23:31;100724.38;;;13.69;100.00
16016;BME280;8112;53.592;10.184;2023-03-18T10:28:52;100727.44;;;14.36;100.00
16016;BME280;8112;53.592;10.184;2023-03-18T10:33:59;100725.94;;;14.56;100.00
16016;BME280;8112;53.592;10.184;2023-03-18T10:39:10;100724.22;;;14.44;100.00
16016;BME280;8112;53.592;10.184;2023-03-18T10:44:17;100726.16;;;14.89;100.00
16016;BME280;8112;53.592;10.184;2023-03-18T10:49:22;100727.47;;;14.72;100.00
16016;BME280;8112;53.592;10.184;2023-03-18T10:54:30;100721.22;;;14.84;100.00
16016;BME280;8112;53.592;10.184;2023-03-18T10:59:33;100722.34;;;14.57;100.00
16016;BME280;8112;53.592;10.184;2023-03-18T11:04:40;100730.56;;;14.65;100.00
16016;BME280;8112;53.592;10.184;2023-03-18T11:09:46;100733.31;;;14.64;100.00
16016;BME280;8112;53.592;10.184;2023-03-18T11:14:49;100737.38;;;15.15;100.00
16016;BME280;8112;53.592;10.184;2023-03-18T11:20:00;100737.25;;;15.39;100.00
16016;BME280;8112;53.592;10.184;2023-03-18T11:25:14;100732.69;;;15.19;100.00
16016;BME280;8112;53.592;10.184;2023-03-18T11:30:19;100740.88;;;15.50;100.00
16016;BME280;8112;53.592;10.184;2023-03-18T11:35:23;100740.69;;;15.86;100.00
16016;BME280;8112;53.592;10.184;2023-03-18T11:40:27;100736.78;;;16.13;100.00
16016;BME280;8112;53.592;10.184;2023-03-18T11:45:42;100743.38;;;16.82;100.00
16016;BME280;8112;53.592;10.184;2023-03-18T11:50:56;100740.13;;;18.80;100.00
16016;BME280;8112;53.592;10.184;2023-03-18T11:56:06;100736.66;;;20.10;100.00
16016;BME280;8112;53.592;10.184;2023-03-18T12:01:18;100736.22;;;20.14;100.00
16016;BME280;8112;53.592;10.184;2023-03-18T12:06:24;100742.09;;;20.00;100.00
16016;BME280;8112;53.592;10.184;2023-03-18T12:11:45;100735.00;;;20.27;100.00
16016;BME280;8112;53.592;10.184;2023-03-18T12:16:59;100743.38;;;18.74;100.00
16016;BME280;8112;53.592;10.184;2023-03-18T12:22:18;100740.41;;;19.52;100.00
16016;BME280;8112;53.592;10.184;2023-03-18T12:27:34;100742.88;;;21.34;100.00
16016;BME280;8112;53.592;10.184;2023-03-18T12:32:39;100740.53;;;21.39;100.00
16016;BME280;8112;53.592;10.184;2023-03-18T12:37:50;100744.19;;;21.30;100.00
16016;BME280;8112;53.592;10.184;2023-03-18T12:48:24;100749.06;;;20.11;100.00
16016;BME280;8112;53.592;10.184;2023-03-18T12:53:34;100745.50;;;20.91;100.00
16016;BME280;8112;53.592;10.184;2023-03-18T12:58:42;100744.91;;;20.79;100.00
16016;BME280;8112;53.592;10.184;2023-03-18T13:03:47;100741.22;;;21.06;96.75
16016;BME280;8112;53.592;10.184;2023-03-18T13:08:58;100744.44;;;21.10;100.00
16016;BME280;8112;53.592;10.184;2023-03-18T13:14:13;100744.00;;;19.61;100.00
16016;BME280;8112;53.592;10.184;2023-03-18T13:19:17;100746.78;;;18.56;100.00
16016;BME280;8112;53.592;10.184;2023-03-18T13:24:44;100755.75;;;20.51;100.00
16016;BME280;8112;53.592;10.184;2023-03-18T13:29:59;100742.50;;;18.83;100.00
16016;BME280;8112;53.592;10.184;2023-03-18T13:35:21;100750.06;;;17.60;100.00
16016;BME280;8112;53.592;10.184;2023-03-18T13:46:01;100745.88;;;16.52;100.00
16016;BME280;8112;53.592;10.184;2023-03-18T13:51:18;100749.50;;;16.30;100.00
16016;BME280;8112;53.592;10.184;2023-03-18T13:56:30;100747.31;;;16.35;100.00
16016;BME280;8112;53.592;10.184;2023-03-18T14:01:34;100744.72;;;18.30;100.00
16016;BME280;8112;53.592;10.184;2023-03-18T14:06:51;100751.19;;;17.26;100.00
16016;BME280;8112;53.592;10.184;2023-03-18T14:11:53;100749.44;;;17.05;100.00
16016;BME280;8112;53.592;10.184;2023-03-18T14:16:58;100762.81;;;16.51;100.00
16016;BME280;8112;53.592;10.184;2023-03-18T14:22:11;100755.59;;;16.09;100.00
16016;BME280;8112;53.592;10.184;2023-03-18T14:27:16;100759.19;;;15.76;100.00
16016;BME280;8112;53.592;10.184;2023-03-18T14:32:35;100747.03;;;16.38;100.00
16016;BME280;8112;53.592;10.184;2023-03-18T14:37:54;100747.28;;;17.81;100.00
16016;BME280;8112;53.592;10.184;2023-03-18T14:43:01;100739.59;;;18.66;100.00
16016;BME280;8112;53.592;10.184;2023-03-18T14:48:11;100733.03;;;18.02;100.00
16016;BME280;8112;53.592;10.184;2023-03-18T14:53:19;100735.22;;;17.77;100.00
16016;BME280;8112;53.592;10.184;2023-03-18T14:58:25;100749.19;;;17.49;100.00
16016;BME280;8112;53.592;10.184;2023-03-18T15:03:30;100739.75;;;17.35;100.00
16016;BME280;8112;53.592;10.184;2023-03-18T15:08:35;100744.06;;;17.27;100.00
16016;BME280;8112;53.592;10.184;2023-03-18T15:13:41;100739.31;;;17.30;100.00
16016;BME280;8112;53.592;10.184;2023-03-18T15:18:44;100746.97;;;17.14;100.00
16016;BME280;8112;53.592;10.184;2023-03-18T15:23:48;100754.88;;;17.35;100.00
16016;BME280;8112;53.592;10.184;2023-03-18T15:28:53;100754.56;;;16.76;100.00
16016;BME280;8112;53.592;10.184;2023-03-18T15:34:06;100757.44;;;16.84;100.00
16016;BME280;8112;53.592;10.184;2023-03-18T15:39:21;100759.00;;;17.08;100.00
16016;BME280;8112;53.592;10.184;2023-03-18T15:44:25;100756.97;;;17.00;100.00
16016;BME280;8112;53.592;10.184;2023-03-18T15:49:30;100762.16;;;16.80;100.00
16016;BME280;8112;53.592;10.184;2023-03-18T15:54:37;100763.91;;;16.70;100.00
16016;BME280;8112;53.592;10.184;2023-03-18T15:59:40;100764.72;;;16.28;100.00
16016;BME280;8112;53.592;10.184;2023-03-18T16:04:43;100767.97;;;15.99;100.00
16016;BME280;8112;53.592;10.184;2023-03-18T16:09:47;100764.19;;;16.13;100.00
16016;BME280;8112;53.592;10.184;2023-03-18T16:14:51;100775.41;;;16.17;100.00
16016;BME280;8112;53.592;10.184;2023-03-18T16:19:54;100776.81;;;16.32;100.00
16016;BME280;8112;53.592;10.184;2023-03-18T16:24:56;100774.41;;;16.29;100.00
16016;BME280;8112;53.592;10.184;2023-03-18T16:29:58;100777.78;;;16.31;100.00
16016;BME280;8112;53.592;10.184;2023-03-18T16:35:01;100782.69;;;16.03;100.00
16016;BME280;8112;53.592;10.184;2023-03-18T16:40:06;100784.13;;;16.07;100.00
16016;BME280;8112;53.592;10.184;2023-03-18T16:45:15;100796.16;;;15.67;100.00
16016;BME280;8112;53.592;10.184;2023-03-18T16:50:20;100795.81;;;15.38;100.00
16016;BME280;8112;53.592;10.184;2023-03-18T16:55:23;100793.00;;;15.05;100.00
16016;BME280;8112;53.592;10.184;2023-03-18T17:00:27;100798.03;;;14.86;100.00
16016;BME280;8112;53.592;10.184;2023-03-18T17:05:33;100800.94;;;14.58;100.00
16016;BME280;8112;53.592;10.184;2023-03-18T17:10:35;100800.63;;;14.38;100.00
16016;BME280;8112;53.592;10.184;2023-03-18T17:15:37;100805.50;;;14.07;100.00
16016;BME280;8112;53.592;10.184;2023-03-18T17:20:42;100815.16;;;13.84;100.00
16016;BME280;8112;53.592;10.184;2023-03-18T17:25:49;100818.78;;;13.57;100.00
16016;BME280;8112;53.592;10.184;2023-03-18T17:30:52;100821.31;;;13.33;100.00
16016;BME280;8112;53.592;10.184;2023-03-18T17:35:56;100838.38;;;13.16;100.00
16016;BME280;8112;53.592;10.184;2023-03-18T17:40:59;100832.66;;;13.09;100.00
16016;BME280;8112;53.592;10.184;2023-03-18T17:46:03;100839.72;;;12.95;100.00
16016;BME280;8112;53.592;10.184;2023-03-18T17:51:11;100852.81;;;12.84;100.00
16016;BME280;8112;53.592;10.184;2023-03-18T17:56:15;100854.16;;;12.77;100.00
16016;BME280;8112;53.592;10.184;2023-03-18T18:01:19;100849.22;;;12.72;100.00
16016;BME280;8112;53.592;10.184;2023-03-18T18:06:25;100856.28;;;12.72;100.00
16016;BME280;8112;53.592;10.184;2023-03-18T18:11:30;100852.94;;;12.55;100.00
16016;BME280;8112;53.592;10.184;2023-03-18T18:16:31;100850.81;;;12.47;100.00
16016;BME280;8112;53.592;10.184;2023-03-18T18:21:34;100859.03;;;12.43;100.00
16016;BME280;8112;53.592;10.184;2023-03-18T18:26:36;100870.59;;;12.27;100.00
16016;BME280;8112;53.592;10.184;2023-03-18T18:31:38;100869.66;;;12.28;100.00
16016;BME280;8112;53.592;10.184;2023-03-18T18:36:41;100870.41;;;12.30;100.00
16016;BME280;8112;53.592;10.184;2023-03-18T18:41:44;100880.97;;;12.30;100.00
16016;BME280;8112;53.592;10.184;2023-03-18T18:46:46;100888.16;;;12.28;100.00
16016;BME280;8112;53.592;10.184;2023-03-18T18:51:49;100892.22;;;12.19;100.00
16016;BME280;8112;53.592;10.184;2023-03-18T18:56:52;100894.22;;;12.16;100.00
16016;BME280;8112;53.592;10.184;2023-03-18T19:01:54;100883.44;;;12.19;100.00
16016;BME280;8112;53.592;10.184;2023-03-18T19:07:00;100893.06;;;12.20;100.00
16016;BME280;8112;53.592;10.184;2023-03-18T19:12:07;100896.84;;;12.16;100.00
16016;BME280;8112;53.592;10.184;2023-03-18T19:17:13;100898.19;;;12.08;100.00
16016;BME280;8112;53.592;10.184;2023-03-18T19:22:19;100889.00;;;12.14;100.00
16016;BME280;8112;53.592;10.184;2023-03-18T19:27:22;100888.06;;;12.15;100.00
16016;BME280;8112;53.592;10.184;2023-03-18T19:32:26;100881.88;;;12.02;100.00
16016;BME280;8112;53.592;10.184;2023-03-18T19:37:30;100887.53;;;11.81;100.00
16016;BME280;8112;53.592;10.184;2023-03-18T19:42:32;100880.53;;;11.51;100.00
16016;BME280;8112;53.592;10.184;2023-03-18T19:47:34;100879.69;;;11.36;100.00
16016;BME280;8112;53.592;10.184;2023-03-18T19:52:38;100890.97;;;11.23;100.00
16016;BME280;8112;53.592;10.184;2023-03-18T19:57:40;100893.19;;;11.01;100.00
16016;BME280;8112;53.592;10.184;2023-03-18T20:02:44;100889.53;;;10.87;100.00
16016;BME280;8112;53.592;10.184;2023-03-18T20:07:47;100893.38;;;10.81;100.00
16016;BME280;8112;53.592;10.184;2023-03-18T20:12:49;100906.06;;;10.75;100.00
16016;BME280;8112;53.592;10.184;2023-03-18T20:17:51;100898.06;;;10.60;100.00
16016;BME280;8112;53.592;10.184;2023-03-18T20:22:57;100904.22;;;10.61;100.00
16016;BME280;8112;53.592;10.184;2023-03-18T20:28:02;100907.72;;;10.61;100.00
16016;BME280;8112;53.592;10.184;2023-03-18T20:33:05;100916.28;;;10.65;100.00
16016;BME280;8112;53.592;10.184;2023-03-18T20:38:13;100921.38;;;10.68;100.00
16016;BME280;8112;53.592;10.184;2023-03-18T20:43:16;100922.56;;;10.78;100.00
16016;BME280;8112;53.592;10.184;2023-03-18T20:48:19;100927.22;;;10.89;100.00
16016;BME280;8112;53.592;10.184;2023-03-18T20:53:24;100936.63;;;10.93;100.00
16016;BME280;8112;53.592;10.184;2023-03-18T20:58:26;100933.31;;;11.06;100.00
16016;BME280;8112;53.592;10.184;2023-03-18T21:03:29;100941.53;;;11.16;100.00
16016;BME280;8112;53.592;10.184;2023-03-18T21:08:32;100931.72;;;11.18;100.00
16016;BME280;8112;53.592;10.184;2023-03-18T21:13:35;100932.84;;;11.14;100.00
16016;BME280;8112;53.592;10.184;2023-03-18T21:18:38;100928.59;;;11.11;100.00
16016;BME280;8112;53.592;10.184;2023-03-18T21:23:42;100929.28;;;11.15;100.00
16016;BME280;8112;53.592;10.184;2023-03-18T21:28:44;100924.09;;;11.13;100.00
16016;BME280;8112;53.592;10.184;2023-03-18T21:33:46;100910.91;;;11.13;100.00
16016;BME280;8112;53.592;10.184;2023-03-18T21:38:49;100907.69;;;11.08;100.00
16016;BME280;8112;53.592;10.184;2023-03-18T21:43:52;100908.13;;;11.00;100.00
16016;BME280;8112;53.592;10.184;2023-03-18T21:48:54;100908.31;;;10.97;100.00
16016;BME280;8112;53.592;10.184;2023-03-18T21:53:57;100910.81;;;10.84;100.00
16016;BME280;8112;53.592;10.184;2023-03-18T21:58:59;100903.84;;;10.83;100.00
16016;BME280;8112;53.592;10.184;2023-03-18T22:04:01;100901.22;;;10.83;100.00
16016;BME280;8112;53.592;10.184;2023-03-18T22:09:04;100902.16;;;10.82;100.00
16016;BME280;8112;53.592;10.184;2023-03-18T22:14:09;100897.88;;;10.79;100.00
16016;BME280;8112;53.592;10.184;2023-03-18T22:19:13;100902.47;;;10.76;100.00
16016;BME280;8112;53.592;10.184;2023-03-18T22:24:16;100903.84;;;10.67;100.00
16016;BME280;8112;53.592;10.184;2023-03-18T22:29:18;100895.91;;;10.52;100.00
16016;BME280;8112;53.592;10.184;2023-03-18T22:34:23;100897.75;;;10.50;100.00
16016;BME280;8112;53.592;10.184;2023-03-18T22:39:26;100896.53;;;10.40;100.00
16016;BME280;8112;53.592;10.184;2023-03-18T22:44:28;100903.53;;;10.25;100.00
16016;BME280;8112;53.592;10.184;2023-03-18T22:49:30;100900.69;;;10.12;100.00
16016;BME280;8112;53.592;10.184;2023-03-18T22:54:33;100904.66;;;10.03;100.00
16016;BME280;8112;53.592;10.184;2023-03-18T22:59:35;100895.84;;;10.04;100.00
16016;BME280;8112;53.592;10.184;2023-03-18T23:04:37;100895.53;;;10.10;100.00
16016;BME280;8112;53.592;10.184;2023-03-18T23:09:40;100880.72;;;10.24;100.00
16016;BME280;8112;53.592;10.184;2023-03-18T23:14:41;100902.31;;;10.15;100.00
16016;BME280;8112;53.592;10.184;2023-03-18T23:19:43;100912.50;;;10.21;100.00
16016;BME280;8112;53.592;10.184;2023-03-18T23:24:47;100908.06;;;10.05;100.00
16016;BME280;8112;53.592;10.184;2023-03-18T23:29:49;100908.50;;;9.97;100.00
16016;BME280;8112;53.592;10.184;2023-03-18T23:34:50;100909.19;;;10.01;100.00
16016;BME280;8112;53.592;10.184;2023-03-18T23:39:53;100911.81;;;10.01;100.00
16016;BME280;8112;53.592;10.184;2023-03-18T23:44:55;100903.38;;;9.94;100.00
16016;BME280;8112;53.592;10.184;2023-03-18T23:49:57;100899.75;;;9.97;100.00
16016;BME280;8112;53.592;10.184;2023-03-18T23:55:00;100899.91;;;9.94;100.00
